sensor_id;sensor_type;location;lat;lon;timestamp;P1;durP1;ratioP1;P2;durP2;ratioP2
1360;SDS011;674;45.552;-122.600;2023-02-01T00:01:22;9.50;;;7.67;;
1360;SDS011;674;45.552;-122.600;2023-02-01T00:03:51;11.30;;;7.90;;
1360;SDS011;674;45.552;-122.600;2023-02-01T00:06:19;11.47;;;7.57;;
1360;SDS011;674;45.552;-122.600;2023-02-01T00:08:48;8.30;;;7.30;;
1360;SDS011;674;45.552;-122.600;2023-02-01T00:11:19;11.00;;;8.20;;
1360;SDS011;674;45.552;-122.600;2023-02-01T00:13:49;11.37;;;8.17;;
1360;SDS011;674;45.552;-122.600;2023-02-01T00:16:22;10.80;;;8.17;;
1360;SDS011;674;45.552;-122.600;2023-02-01T00:18:56;10.00;;;8.37;;
1360;SDS011;674;45.552;-122.600;2023-02-01T00:21:27;9.80;;;7.23;;
1360;SDS011;674;45.552;-122.600;2023-02-01T00:23:56;9.90;;;8.37;;
1360;SDS011;674;45.552;-122.600;2023-02-01T00:26:38;10.57;;;7.67;;
1360;SDS011;674;45.552;-122.600;2023-02-01T00:29:13;10.00;;;7.77;;
1360;SDS011;674;45.552;-122.600;2023-02-01T00:31:46;13.40;;;8.20;;
1360;SDS011;674;45.552;-122.600;2023-02-01T00:34:17;10.57;;;8.10;;
1360;SDS011;674;45.552;-122.600;2023-02-01T00:36:46;12.33;;;8.87;;
1360;SDS011;674;45.552;-122.600;2023-02-01T00:39:15;14.10;;;8.77;;
1360;SDS011;674;45.552;-122.600;2023-02-01T00:41:44;11.93;;;8.00;;
1360;SDS011;674;45.552;-122.600;2023-02-01T00:44:12;12.40;;;9.23;;
1360;SDS011;674;45.552;-122.600;2023-02-01T00:46:41;13.90;;;10.43;;
1360;SDS011;674;45.552;-122.600;2023-02-01T00:49:09;17.97;;;11.77;;
1360;SDS011;674;45.552;-122.600;2023-02-01T00:51:38;15.37;;;11.30;;
1360;SDS011;674;45.552;-122.600;2023-02-01T00:54:06;18.00;;;11.23;;
1360;SDS011;674;45.552;-122.600;2023-02-01T00:56:35;16.70;;;14.20;;
1360;SDS011;674;45.552;-122.600;2023-02-01T00:59:03;18.53;;;15.30;;
1360;SDS011;674;45.552;-122.600;2023-02-01T01:01:31;22.77;;;18.93;;
1360;SDS011;674;45.552;-122.600;2023-02-01T01:04:00;25.20;;;21.23;;
1360;SDS011;674;45.552;-122.600;2023-02-01T01:06:29;27.60;;;20.00;;
1360;SDS011;674;45.552;-122.600;2023-02-01T01:08:59;27.90;;;19.70;;
1360;SDS011;674;45.552;-122.600;2023-02-01T01:11:31;23.27;;;19.50;;
1360;SDS011;674;45.552;-122.600;2023-02-01T01:14:02;24.93;;;20.17;;
1360;SDS011;674;45.552;-122.600;2023-02-01T01:16:31;20.60;;;16.40;;
1360;SDS011;674;45.552;-122.600;2023-02-01T01:19:01;25.80;;;19.50;;
1360;SDS011;674;45.552;-122.600;2023-02-01T01:21:30;25.47;;;19.17;;
1360;SDS011;674;45.552;-122.600;2023-02-01T01:23:59;25.67;;;20.77;;
1360;SDS011;674;45.552;-122.600;2023-02-01T01:26:27;32.60;;;19.70;;
1360;SDS011;674;45.552;-122.600;2023-02-01T01:28:57;27.17;;;20.75;;
1360;SDS011;674;45.552;-122.600;2023-02-01T01:31:26;27.43;;;18.23;;
1360;SDS011;674;45.552;-122.600;2023-02-01T01:33:57;25.35;;;17.90;;
1360;SDS011;674;45.552;-122.600;2023-02-01T01:36:27;25.60;;;18.70;;
1360;SDS011;674;45.552;-122.600;2023-02-01T01:38:56;25.98;;;18.10;;
1360;SDS011;674;45.552;-122.600;2023-02-01T01:41:26;21.38;;;17.85;;
1360;SDS011;674;45.552;-122.600;2023-02-01T01:43:58;22.15;;;17.58;;
1360;SDS011;674;45.552;-122.600;2023-02-01T01:46:31;20.88;;;16.23;;
1360;SDS011;674;45.552;-122.600;2023-02-01T01:51:49;19.50;;;16.75;;
1360;SDS011;674;45.552;-122.600;2023-02-01T01:57:04;23.88;;;19.00;;
1360;SDS011;674;45.552;-122.600;2023-02-01T01:59:37;34.85;;;31.38;;
1360;SDS011;674;45.552;-122.600;2023-02-01T02:02:07;32.63;;;28.48;;
1360;SDS011;674;45.552;-122.600;2023-02-01T02:04:36;29.85;;;21.05;;
1360;SDS011;674;45.552;-122.600;2023-02-01T02:07:13;28.00;;;19.65;;
1360;SDS011;674;45.552;-122.600;2023-02-01T02:09:47;24.63;;;22.00;;
1360;SDS011;674;45.552;-122.600;2023-02-01T02:12:26;29.25;;;21.75;;
1360;SDS011;674;45.552;-122.600;2023-02-01T02:14:55;23.42;;;20.50;;
1360;SDS011;674;45.552;-122.600;2023-02-01T02:23:24;23.60;;;19.67;;
1360;SDS011;674;45.552;-122.600;2023-02-01T02:32:28;19.80;;;15.23;;
1360;SDS011;674;45.552;-122.600;2023-02-01T02:34:46;20.88;;;17.42;;
1360;SDS011;674;45.552;-122.600;2023-02-01T02:37:46;22.25;;;17.65;;
1360;SDS011;674;45.552;-122.600;2023-02-01T02:40:31;21.98;;;16.63;;
1360;SDS011;674;45.552;-122.600;2023-02-01T02:43:10;27.60;;;19.35;;
1360;SDS011;674;45.552;-122.600;2023-02-01T02:46:01;21.83;;;17.98;;
1360;SDS011;674;45.552;-122.600;2023-02-01T02:49:00;23.25;;;16.38;;
1360;SDS011;674;45.552;-122.600;2023-02-01T02:51:45;21.83;;;16.00;;
1360;SDS011;674;45.552;-122.600;2023-02-01T02:54:35;25.02;;;16.70;;
1360;SDS011;674;45.552;-122.600;2023-02-01T02:57:16;19.95;;;14.38;;
1360;SDS011;674;45.552;-122.600;2023-02-01T03:00:12;20.60;;;16.25;;
1360;SDS011;674;45.552;-122.600;2023-02-01T03:03:04;21.50;;;16.65;;
1360;SDS011;674;45.552;-122.600;2023-02-01T03:05:52;19.95;;;16.30;;
1360;SDS011;674;45.552;-122.600;2023-02-01T03:08:21;20.50;;;17.08;;
1360;SDS011;674;45.552;-122.600;2023-02-01T03:11:02;20.73;;;16.17;;
1360;SDS011;674;45.552;-122.600;2023-02-01T03:16:15;25.02;;;16.67;;
1360;SDS011;674;45.552;-122.600;2023-02-01T03:19:25;21.40;;;16.60;;
1360;SDS011;674;45.552;-122.600;2023-02-01T03:22:05;19.48;;;15.82;;
1360;SDS011;674;45.552;-122.600;2023-02-01T03:24:38;22.90;;;17.42;;
1360;SDS011;674;45.552;-122.600;2023-02-01T03:29:53;25.23;;;17.85;;
1360;SDS011;674;45.552;-122.600;2023-02-01T03:32:34;20.52;;;16.45;;
1360;SDS011;674;45.552;-122.600;2023-02-01T03:35:25;20.88;;;15.63;;
1360;SDS011;674;45.552;-122.600;2023-02-01T03:38:14;21.20;;;16.33;;
1360;SDS011;674;45.552;-122.600;2023-02-01T03:40:51;20.48;;;15.43;;
1360;SDS011;674;45.552;-122.600;2023-02-01T03:43:28;19.73;;;15.98;;
1360;SDS011;674;45.552;-122.600;2023-02-01T03:46:01;20.80;;;17.05;;
1360;SDS011;674;45.552;-122.600;2023-02-01T03:48:34;23.50;;;17.08;;
1360;SDS011;674;45.552;-122.600;2023-02-01T03:51:04;17.85;;;14.75;;
1360;SDS011;674;45.552;-122.600;2023-02-01T03:53:35;17.52;;;14.90;;
1360;SDS011;674;45.552;-122.600;2023-02-01T03:56:05;25.65;;;18.20;;
1360;SDS011;674;45.552;-122.600;2023-02-01T03:58:38;21.90;;;16.00;;
1360;SDS011;674;45.552;-122.600;2023-02-01T04:01:07;27.17;;;18.75;;
1360;SDS011;674;45.552;-122.600;2023-02-01T04:03:35;23.90;;;15.95;;
1360;SDS011;674;45.552;-122.600;2023-02-01T04:06:04;22.23;;;15.43;;
1360;SDS011;674;45.552;-122.600;2023-02-01T04:08:32;22.20;;;16.33;;
1360;SDS011;674;45.552;-122.600;2023-02-01T04:11:01;22.70;;;16.42;;
1360;SDS011;674;45.552;-122.600;2023-02-01T04:13:29;20.27;;;16.50;;
1360;SDS011;674;45.552;-122.600;2023-02-01T04:15:58;24.38;;;18.52;;
1360;SDS011;674;45.552;-122.600;2023-02-01T04:18:26;23.92;;;17.98;;
1360;SDS011;674;45.552;-122.600;2023-02-01T04:20:55;22.90;;;16.90;;
1360;SDS011;674;45.552;-122.600;2023-02-01T04:23:23;22.85;;;16.65;;
1360;SDS011;674;45.552;-122.600;2023-02-01T04:25:52;25.17;;;17.80;;
1360;SDS011;674;45.552;-122.600;2023-02-01T04:28:21;25.00;;;17.63;;
1360;SDS011;674;45.552;-122.600;2023-02-01T04:30:49;23.95;;;15.90;;
1360;SDS011;674;45.552;-122.600;2023-02-01T04:33:18;23.65;;;17.08;;
1360;SDS011;674;45.552;-122.600;2023-02-01T04:35:46;19.35;;;15.65;;
1360;SDS011;674;45.552;-122.600;2023-02-01T04:38:15;19.65;;;15.82;;
1360;SDS011;674;45.552;-122.600;2023-02-01T04:40:46;25.30;;;16.30;;
1360;SDS011;674;45.552;-122.600;2023-02-01T04:43:16;21.48;;;14.98;;
1360;SDS011;674;45.552;-122.600;2023-02-01T04:45:48;15.88;;;11.05;;
1360;SDS011;674;45.552;-122.600;2023-02-01T04:48:17;14.57;;;9.73;;
1360;SDS011;674;45.552;-122.600;2023-02-01T04:50:48;13.25;;;9.68;;
1360;SDS011;674;45.552;-122.600;2023-02-01T04:53:17;13.70;;;8.30;;
1360;SDS011;674;45.552;-122.600;2023-02-01T04:55:47;14.05;;;8.93;;
1360;SDS011;674;45.552;-122.600;2023-02-01T04:58:17;10.18;;;7.80;;
1360;SDS011;674;45.552;-122.600;2023-02-01T05:00:45;10.20;;;7.70;;
1360;SDS011;674;45.552;-122.600;2023-02-01T05:03:14;10.68;;;7.70;;
1360;SDS011;674;45.552;-122.600;2023-02-01T05:05:42;12.18;;;8.77;;
1360;SDS011;674;45.552;-122.600;2023-02-01T05:08:11;14.02;;;10.38;;
1360;SDS011;674;45.552;-122.600;2023-02-01T05:10:39;11.05;;;9.48;;
1360;SDS011;674;45.552;-122.600;2023-02-01T05:13:08;12.70;;;8.80;;
1360;SDS011;674;45.552;-122.600;2023-02-01T05:15:56;12.68;;;9.13;;
1360;SDS011;674;45.552;-122.600;2023-02-01T05:18:24;14.15;;;9.18;;
1360;SDS011;674;45.552;-122.600;2023-02-01T05:20:53;11.05;;;8.30;;
1360;SDS011;674;45.552;-122.600;2023-02-01T05:23:21;9.38;;;7.82;;
1360;SDS011;674;45.552;-122.600;2023-02-01T05:25:49;12.88;;;9.27;;
1360;SDS011;674;45.552;-122.600;2023-02-01T05:28:18;10.70;;;8.70;;
1360;SDS011;674;45.552;-122.600;2023-02-01T05:30:46;12.40;;;8.80;;
1360;SDS011;674;45.552;-122.600;2023-02-01T05:33:15;13.20;;;8.30;;
1360;SDS011;674;45.552;-122.600;2023-02-01T05:35:43;12.95;;;9.18;;
1360;SDS011;674;45.552;-122.600;2023-02-01T05:38:12;10.77;;;8.60;;
1360;SDS011;674;45.552;-122.600;2023-02-01T05:40:40;13.35;;;8.80;;
1360;SDS011;674;45.552;-122.600;2023-02-01T05:43:09;12.02;;;9.27;;
1360;SDS011;674;45.552;-122.600;2023-02-01T05:45:37;13.10;;;8.82;;
1360;SDS011;674;45.552;-122.600;2023-02-01T05:48:05;11.32;;;7.97;;
1360;SDS011;674;45.552;-122.600;2023-02-01T05:50:34;13.63;;;9.25;;
1360;SDS011;674;45.552;-122.600;2023-02-01T05:53:02;10.23;;;8.38;;
1360;SDS011;674;45.552;-122.600;2023-02-01T05:55:31;11.25;;;9.07;;
1360;SDS011;674;45.552;-122.600;2023-02-01T05:58:00;9.75;;;7.30;;
1360;SDS011;674;45.552;-122.600;2023-02-01T06:00:28;8.93;;;7.07;;
1360;SDS011;674;45.552;-122.600;2023-02-01T06:02:57;11.25;;;7.60;;
1360;SDS011;674;45.552;-122.600;2023-02-01T06:05:25;10.60;;;7.65;;
1360;SDS011;674;45.552;-122.600;2023-02-01T06:07:54;9.45;;;7.65;;
1360;SDS011;674;45.552;-122.600;2023-02-01T06:10:23;15.25;;;9.10;;
1360;SDS011;674;45.552;-122.600;2023-02-01T06:12:51;20.30;;;13.98;;
1360;SDS011;674;45.552;-122.600;2023-02-01T06:15:20;14.88;;;11.38;;
1360;SDS011;674;45.552;-122.600;2023-02-01T06:17:48;15.98;;;12.85;;
1360;SDS011;674;45.552;-122.600;2023-02-01T06:20:17;17.08;;;12.88;;
1360;SDS011;674;45.552;-122.600;2023-02-01T06:22:46;17.90;;;15.23;;
1360;SDS011;674;45.552;-122.600;2023-02-01T06:25:14;14.73;;;11.68;;
1360;SDS011;674;45.552;-122.600;2023-02-01T06:27:44;21.42;;;15.20;;
1360;SDS011;674;45.552;-122.600;2023-02-01T06:30:13;16.60;;;13.82;;
1360;SDS011;674;45.552;-122.600;2023-02-01T06:32:41;16.30;;;12.38;;
1360;SDS011;674;45.552;-122.600;2023-02-01T06:35:10;12.63;;;11.20;;
1360;SDS011;674;45.552;-122.600;2023-02-01T06:37:43;14.05;;;10.90;;
1360;SDS011;674;45.552;-122.600;2023-02-01T06:40:12;14.65;;;11.30;;
1360;SDS011;674;45.552;-122.600;2023-02-01T06:42:40;15.15;;;12.05;;
1360;SDS011;674;45.552;-122.600;2023-02-01T06:45:09;12.85;;;10.45;;
1360;SDS011;674;45.552;-122.600;2023-02-01T06:47:37;14.10;;;12.02;;
1360;SDS011;674;45.552;-122.600;2023-02-01T06:50:06;15.73;;;12.00;;
1360;SDS011;674;45.552;-122.600;2023-02-01T06:52:35;14.30;;;11.68;;
1360;SDS011;674;45.552;-122.600;2023-02-01T06:55:03;16.83;;;12.27;;
1360;SDS011;674;45.552;-122.600;2023-02-01T06:57:32;14.82;;;11.27;;
1360;SDS011;674;45.552;-122.600;2023-02-01T07:00:03;16.58;;;12.02;;
1360;SDS011;674;45.552;-122.600;2023-02-01T07:02:32;16.80;;;11.35;;
1360;SDS011;674;45.552;-122.600;2023-02-01T07:05:01;16.48;;;11.88;;
1360;SDS011;674;45.552;-122.600;2023-02-01T07:07:29;13.70;;;11.50;;
1360;SDS011;674;45.552;-122.600;2023-02-01T07:09:57;14.40;;;10.30;;
1360;SDS011;674;45.552;-122.600;2023-02-01T07:12:26;12.18;;;9.27;;
1360;SDS011;674;45.552;-122.600;2023-02-01T07:14:54;16.13;;;11.40;;
1360;SDS011;674;45.552;-122.600;2023-02-01T07:17:23;12.52;;;10.27;;
1360;SDS011;674;45.552;-122.600;2023-02-01T07:19:52;14.55;;;11.27;;
1360;SDS011;674;45.552;-122.600;2023-02-01T07:22:21;19.35;;;12.98;;
1360;SDS011;674;45.552;-122.600;2023-02-01T07:24:49;19.13;;;14.45;;
1360;SDS011;674;45.552;-122.600;2023-02-01T07:27:17;20.17;;;14.40;;
1360;SDS011;674;45.552;-122.600;2023-02-01T07:29:47;19.42;;;15.80;;
1360;SDS011;674;45.552;-122.600;2023-02-01T07:32:15;14.55;;;12.95;;
1360;SDS011;674;45.552;-122.600;2023-02-01T07:34:45;15.10;;;12.70;;
1360;SDS011;674;45.552;-122.600;2023-02-01T07:37:13;17.27;;;12.15;;
1360;SDS011;674;45.552;-122.600;2023-02-01T07:39:42;16.67;;;12.07;;
1360;SDS011;674;45.552;-122.600;2023-02-01T07:42:10;13.93;;;11.50;;
1360;SDS011;674;45.552;-122.600;2023-02-01T07:44:39;16.75;;;11.10;;
1360;SDS011;674;45.552;-122.600;2023-02-01T07:47:07;18.05;;;12.30;;
1360;SDS011;674;45.552;-122.600;2023-02-01T07:49:35;13.68;;;10.38;;
1360;SDS011;674;45.552;-122.600;2023-02-01T07:52:04;15.02;;;10.88;;
1360;SDS011;674;45.552;-122.600;2023-02-01T07:54:32;14.48;;;10.70;;
1360;SDS011;674;45.552;-122.600;2023-02-01T07:57:01;13.55;;;10.55;;
1360;SDS011;674;45.552;-122.600;2023-02-01T07:59:29;14.05;;;10.35;;
1360;SDS011;674;45.552;-122.600;2023-02-01T08:01:57;18.48;;;12.55;;
1360;SDS011;674;45.552;-122.600;2023-02-01T08:04:26;21.55;;;12.80;;
1360;SDS011;674;45.552;-122.600;2023-02-01T08:06:56;15.55;;;11.70;;
1360;SDS011;674;45.552;-122.600;2023-02-01T08:09:24;16.35;;;12.10;;
1360;SDS011;674;45.552;-122.600;2023-02-01T08:11:53;17.70;;;12.10;;
1360;SDS011;674;45.552;-122.600;2023-02-01T08:14:21;16.35;;;12.98;;
1360;SDS011;674;45.552;-122.600;2023-02-01T08:16:49;13.25;;;11.48;;
1360;SDS011;674;45.552;-122.600;2023-02-01T08:19:18;15.50;;;10.80;;
1360;SDS011;674;45.552;-122.600;2023-02-01T08:21:46;18.30;;;13.02;;
1360;SDS011;674;45.552;-122.600;2023-02-01T08:24:16;19.75;;;13.52;;
1360;SDS011;674;45.552;-122.600;2023-02-01T08:26:44;20.33;;;14.80;;
1360;SDS011;674;45.552;-122.600;2023-02-01T08:29:12;12.98;;;9.90;;
1360;SDS011;674;45.552;-122.600;2023-02-01T08:31:41;21.83;;;14.98;;
1360;SDS011;674;45.552;-122.600;2023-02-01T08:34:10;17.98;;;13.77;;
1360;SDS011;674;45.552;-122.600;2023-02-01T08:36:39;17.92;;;13.18;;
1360;SDS011;674;45.552;-122.600;2023-02-01T08:39:08;18.05;;;13.48;;
1360;SDS011;674;45.552;-122.600;2023-02-01T08:41:38;16.33;;;11.00;;
1360;SDS011;674;45.552;-122.600;2023-02-01T08:44:07;17.85;;;14.00;;
1360;SDS011;674;45.552;-122.600;2023-02-01T08:46:35;16.17;;;11.73;;
1360;SDS011;674;45.552;-122.600;2023-02-01T08:49:03;15.52;;;10.98;;
1360;SDS011;674;45.552;-122.600;2023-02-01T08:51:32;13.77;;;10.85;;
1360;SDS011;674;45.552;-122.600;2023-02-01T08:54:01;14.20;;;11.43;;
1360;SDS011;674;45.552;-122.600;2023-02-01T08:56:29;16.48;;;11.10;;
1360;SDS011;674;45.552;-122.600;2023-02-01T08:58:58;14.05;;;11.70;;
1360;SDS011;674;45.552;-122.600;2023-02-01T09:01:26;14.18;;;10.15;;
1360;SDS011;674;45.552;-122.600;2023-02-01T09:03:54;12.30;;;10.90;;
1360;SDS011;674;45.552;-122.600;2023-02-01T09:06:23;17.45;;;11.68;;
1360;SDS011;674;45.552;-122.600;2023-02-01T09:08:51;13.18;;;9.80;;
1360;SDS011;674;45.552;-122.600;2023-02-01T09:11:20;14.68;;;10.90;;
1360;SDS011;674;45.552;-122.600;2023-02-01T09:13:48;15.15;;;10.25;;
1360;SDS011;674;45.552;-122.600;2023-02-01T09:16:17;16.77;;;10.60;;
1360;SDS011;674;45.552;-122.600;2023-02-01T09:18:46;13.63;;;10.43;;
1360;SDS011;674;45.552;-122.600;2023-02-01T09:21:34;12.40;;;10.70;;
1360;SDS011;674;45.552;-122.600;2023-02-01T09:24:03;13.32;;;10.38;;
1360;SDS011;674;45.552;-122.600;2023-02-01T09:26:32;14.73;;;10.80;;
1360;SDS011;674;45.552;-122.600;2023-02-01T09:29:00;13.23;;;10.25;;
1360;SDS011;674;45.552;-122.600;2023-02-01T09:31:30;14.02;;;10.15;;
1360;SDS011;674;45.552;-122.600;2023-02-01T09:33:59;12.25;;;9.40;;
1360;SDS011;674;45.552;-122.600;2023-02-01T09:36:28;11.93;;;9.50;;
1360;SDS011;674;45.552;-122.600;2023-02-01T09:38:57;13.77;;;10.20;;
1360;SDS011;674;45.552;-122.600;2023-02-01T09:41:37;13.38;;;9.35;;
1360;SDS011;674;45.552;-122.600;2023-02-01T09:47:16;17.20;;;11.90;;
1360;SDS011;674;45.552;-122.600;2023-02-01T09:50:01;16.67;;;11.27;;
1360;SDS011;674;45.552;-122.600;2023-02-01T09:52:54;17.75;;;13.05;;
1360;SDS011;674;45.552;-122.600;2023-02-01T10:00:46;14.85;;;10.02;;
1360;SDS011;674;45.552;-122.600;2023-02-01T10:03:21;13.77;;;8.85;;
1360;SDS011;674;45.552;-122.600;2023-02-01T10:08:33;13.48;;;8.02;;
1360;SDS011;674;45.552;-122.600;2023-02-01T10:17:05;13.38;;;8.02;;
1360;SDS011;674;45.552;-122.600;2023-02-01T10:22:41;10.35;;;7.97;;
1360;SDS011;674;45.552;-122.600;2023-02-01T10:25:54;17.15;;;8.80;;
1360;SDS011;674;45.552;-122.600;2023-02-01T10:28:24;10.40;;;7.95;;
1360;SDS011;674;45.552;-122.600;2023-02-01T10:30:54;10.90;;;8.25;;
1360;SDS011;674;45.552;-122.600;2023-02-01T10:33:27;14.15;;;8.73;;
1360;SDS011;674;45.552;-122.600;2023-02-01T10:38:53;14.93;;;8.38;;
1360;SDS011;674;45.552;-122.600;2023-02-01T10:41:23;10.77;;;7.93;;
1360;SDS011;674;45.552;-122.600;2023-02-01T10:44:09;10.95;;;7.72;;
1360;SDS011;674;45.552;-122.600;2023-02-01T10:46:42;10.32;;;7.72;;
1360;SDS011;674;45.552;-122.600;2023-02-01T10:49:16;11.75;;;7.82;;
1360;SDS011;674;45.552;-122.600;2023-02-01T10:51:54;10.73;;;7.72;;
1360;SDS011;674;45.552;-122.600;2023-02-01T10:54:46;10.50;;;7.70;;
1360;SDS011;674;45.552;-122.600;2023-02-01T10:57:22;11.88;;;8.00;;
1360;SDS011;674;45.552;-122.600;2023-02-01T10:59:53;10.95;;;8.15;;
1360;SDS011;674;45.552;-122.600;2023-02-01T11:02:34;12.55;;;8.80;;
1360;SDS011;674;45.552;-122.600;2023-02-01T11:05:04;11.63;;;8.50;;
1360;SDS011;674;45.552;-122.600;2023-02-01T11:07:39;10.70;;;8.63;;
1360;SDS011;674;45.552;-122.600;2023-02-01T11:10:37;12.27;;;9.02;;
1360;SDS011;674;45.552;-122.600;2023-02-01T11:13:11;12.18;;;9.07;;
1360;SDS011;674;45.552;-122.600;2023-02-01T11:15:46;12.43;;;8.27;;
1360;SDS011;674;45.552;-122.600;2023-02-01T11:18:30;14.93;;;8.45;;
1360;SDS011;674;45.552;-122.600;2023-02-01T11:21:03;9.85;;;8.80;;
1360;SDS011;674;45.552;-122.600;2023-02-01T11:23:33;14.07;;;9.10;;
1360;SDS011;674;45.552;-122.600;2023-02-01T11:26:13;11.02;;;8.07;;
1360;SDS011;674;45.552;-122.600;2023-02-01T11:28:50;14.32;;;9.15;;
1360;SDS011;674;45.552;-122.600;2023-02-01T11:31:29;11.27;;;8.23;;
1360;SDS011;674;45.552;-122.600;2023-02-01T11:34:14;15.52;;;8.77;;
1360;SDS011;674;45.552;-122.600;2023-02-01T11:36:47;11.77;;;8.25;;
1360;SDS011;674;45.552;-122.600;2023-02-01T11:39:20;11.35;;;8.95;;
1360;SDS011;674;45.552;-122.600;2023-02-01T11:42:01;11.23;;;8.43;;
1360;SDS011;674;45.552;-122.600;2023-02-01T11:44:42;10.55;;;8.55;;
1360;SDS011;674;45.552;-122.600;2023-02-01T11:49:53;12.95;;;9.65;;
1360;SDS011;674;45.552;-122.600;2023-02-01T12:03:53;14.25;;;10.40;;
1360;SDS011;674;45.552;-122.600;2023-02-01T12:06:47;12.27;;;9.18;;
1360;SDS011;674;45.552;-122.600;2023-02-01T12:25:30;15.70;;;9.80;;
1360;SDS011;674;45.552;-122.600;2023-02-01T12:36:40;16.77;;;10.45;;
1360;SDS011;674;45.552;-122.600;2023-02-01T12:39:30;13.80;;;10.30;;
1360;SDS011;674;45.552;-122.600;2023-02-01T12:42:32;14.48;;;11.00;;
1360;SDS011;674;45.552;-122.600;2023-02-01T12:51:15;16.33;;;10.20;;
1360;SDS011;674;45.552;-122.600;2023-02-01T12:53:57;15.38;;;11.10;;
1360;SDS011;674;45.552;-122.600;2023-02-01T12:56:37;15.30;;;10.60;;
1360;SDS011;674;45.552;-122.600;2023-02-01T12:59:17;13.85;;;10.35;;
1360;SDS011;674;45.552;-122.600;2023-02-01T13:02:39;15.40;;;10.75;;
1360;SDS011;674;45.552;-122.600;2023-02-01T13:05:26;12.95;;;9.52;;
1360;SDS011;674;45.552;-122.600;2023-02-01T13:08:13;11.00;;;8.88;;
1360;SDS011;674;45.552;-122.600;2023-02-01T13:10:46;14.85;;;10.05;;
1360;SDS011;674;45.552;-122.600;2023-02-01T13:13:28;14.05;;;9.45;;
1360;SDS011;674;45.552;-122.600;2023-02-01T13:16:06;12.55;;;9.25;;
1360;SDS011;674;45.552;-122.600;2023-02-01T13:18:46;11.00;;;8.90;;
1360;SDS011;674;45.552;-122.600;2023-02-01T13:21:20;11.48;;;9.52;;
1360;SDS011;674;45.552;-122.600;2023-02-01T13:23:54;13.02;;;9.70;;
1360;SDS011;674;45.552;-122.600;2023-02-01T13:26:23;10.80;;;8.93;;
1360;SDS011;674;45.552;-122.600;2023-02-01T13:28:58;12.10;;;8.95;;
1360;SDS011;674;45.552;-122.600;2023-02-01T13:43:43;14.05;;;9.25;;
1360;SDS011;674;45.552;-122.600;2023-02-01T13:46:15;11.77;;;9.18;;
1360;SDS011;674;45.552;-122.600;2023-02-01T13:51:43;15.48;;;10.85;;
1360;SDS011;674;45.552;-122.600;2023-02-01T13:57:04;16.83;;;10.57;;
1360;SDS011;674;45.552;-122.600;2023-02-01T13:59:53;15.27;;;10.90;;
1360;SDS011;674;45.552;-122.600;2023-02-01T14:05:11;14.45;;;9.93;;
1360;SDS011;674;45.552;-122.600;2023-02-01T14:21:27;11.48;;;9.00;;
1360;SDS011;674;45.552;-122.600;2023-02-01T14:42:19;13.40;;;10.80;;
1360;SDS011;674;45.552;-122.600;2023-02-01T14:44:51;12.80;;;10.57;;
1360;SDS011;674;45.552;-122.600;2023-02-01T14:47:26;13.45;;;9.75;;
1360;SDS011;674;45.552;-122.600;2023-02-01T14:52:39;13.30;;;9.60;;
1360;SDS011;674;45.552;-122.600;2023-02-01T15:01:31;12.00;;;9.23;;
1360;SDS011;674;45.552;-122.600;2023-02-01T15:04:17;12.80;;;9.35;;
1360;SDS011;674;45.552;-122.600;2023-02-01T15:06:58;19.70;;;9.07;;
1360;SDS011;674;45.552;-122.600;2023-02-01T15:09:35;12.85;;;9.65;;
1360;SDS011;674;45.552;-122.600;2023-02-01T15:14:46;13.25;;;9.90;;
1360;SDS011;674;45.552;-122.600;2023-02-01T15:17:30;10.95;;;9.60;;
1360;SDS011;674;45.552;-122.600;2023-02-01T15:20:04;11.20;;;8.52;;
1360;SDS011;674;45.552;-122.600;2023-02-01T15:22:39;15.02;;;9.57;;
1360;SDS011;674;45.552;-122.600;2023-02-01T15:25:21;13.10;;;9.32;;
1360;SDS011;674;45.552;-122.600;2023-02-01T15:27:55;10.88;;;8.82;;
1360;SDS011;674;45.552;-122.600;2023-02-01T15:30:28;11.77;;;8.68;;
1360;SDS011;674;45.552;-122.600;2023-02-01T15:33:14;11.35;;;8.30;;
1360;SDS011;674;45.552;-122.600;2023-02-01T15:35:47;12.13;;;8.43;;
1360;SDS011;674;45.552;-122.600;2023-02-01T15:38:40;10.45;;;7.70;;
1360;SDS011;674;45.552;-122.600;2023-02-01T15:49:16;10.90;;;7.90;;
1360;SDS011;674;45.552;-122.600;2023-02-01T15:51:46;13.48;;;8.60;;
1360;SDS011;674;45.552;-122.600;2023-02-01T15:54:16;12.65;;;8.93;;
1360;SDS011;674;45.552;-122.600;2023-02-01T15:56:52;13.18;;;9.27;;
1360;SDS011;674;45.552;-122.600;2023-02-01T15:59:25;13.02;;;8.45;;
1360;SDS011;674;45.552;-122.600;2023-02-01T16:02:25;11.25;;;8.65;;
1360;SDS011;674;45.552;-122.600;2023-02-01T16:04:54;10.90;;;7.78;;
1360;SDS011;674;45.552;-122.600;2023-02-01T16:07:30;11.43;;;8.80;;
1360;SDS011;674;45.552;-122.600;2023-02-01T16:10:01;9.45;;;8.23;;
1360;SDS011;674;45.552;-122.600;2023-02-01T16:12:47;11.50;;;9.18;;
1360;SDS011;674;45.552;-122.600;2023-02-01T16:15:16;12.48;;;9.10;;
1360;SDS011;674;45.552;-122.600;2023-02-01T16:17:45;14.98;;;10.60;;
1360;SDS011;674;45.552;-122.600;2023-02-01T16:20:13;12.73;;;10.38;;
1360;SDS011;674;45.552;-122.600;2023-02-01T16:22:42;11.55;;;7.85;;
1360;SDS011;674;45.552;-122.600;2023-02-01T16:25:10;13.52;;;7.95;;
1360;SDS011;674;45.552;-122.600;2023-02-01T16:27:39;8.88;;;7.93;;
1360;SDS011;674;45.552;-122.600;2023-02-01T16:30:07;10.02;;;7.18;;
1360;SDS011;674;45.552;-122.600;2023-02-01T16:32:37;10.57;;;7.10;;
1360;SDS011;674;45.552;-122.600;2023-02-01T16:35:17;10.52;;;7.18;;
1360;SDS011;674;45.552;-122.600;2023-02-01T16:37:50;10.40;;;7.60;;
1360;SDS011;674;45.552;-122.600;2023-02-01T16:40:19;10.07;;;6.63;;
1360;SDS011;674;45.552;-122.600;2023-02-01T16:42:49;11.73;;;6.47;;
1360;SDS011;674;45.552;-122.600;2023-02-01T16:45:19;8.98;;;6.50;;
1360;SDS011;674;45.552;-122.600;2023-02-01T16:47:51;9.00;;;6.28;;
1360;SDS011;674;45.552;-122.600;2023-02-01T16:50:23;9.95;;;6.68;;
1360;SDS011;674;45.552;-122.600;2023-02-01T16:52:53;9.15;;;6.32;;
1360;SDS011;674;45.552;-122.600;2023-02-01T16:55:21;7.90;;;5.82;;
1360;SDS011;674;45.552;-122.600;2023-02-01T16:57:50;9.05;;;6.10;;
1360;SDS011;674;45.552;-122.600;2023-02-01T17:00:19;9.60;;;6.47;;
1360;SDS011;674;45.552;-122.600;2023-02-01T17:02:51;10.35;;;6.60;;
1360;SDS011;674;45.552;-122.600;2023-02-01T17:05:20;13.48;;;6.72;;
1360;SDS011;674;45.552;-122.600;2023-02-01T17:07:49;10.02;;;6.97;;
1360;SDS011;674;45.552;-122.600;2023-02-01T17:10:25;10.15;;;5.97;;
1360;SDS011;674;45.552;-122.600;2023-02-01T17:13:00;7.18;;;5.50;;
1360;SDS011;674;45.552;-122.600;2023-02-01T17:15:31;8.82;;;5.53;;
1360;SDS011;674;45.552;-122.600;2023-02-01T17:18:01;9.90;;;6.13;;
1360;SDS011;674;45.552;-122.600;2023-02-01T17:20:30;7.55;;;5.70;;
1360;SDS011;674;45.552;-122.600;2023-02-01T17:23:00;10.52;;;6.95;;
1360;SDS011;674;45.552;-122.600;2023-02-01T17:25:28;7.38;;;5.60;;
1360;SDS011;674;45.552;-122.600;2023-02-01T17:27:58;10.52;;;6.15;;
1360;SDS011;674;45.552;-122.600;2023-02-01T17:30:26;9.68;;;5.53;;
1360;SDS011;674;45.552;-122.600;2023-02-01T17:32:55;8.50;;;5.55;;
1360;SDS011;674;45.552;-122.600;2023-02-01T17:35:27;7.60;;;6.32;;
1360;SDS011;674;45.552;-122.600;2023-02-01T17:37:57;8.85;;;6.00;;
1360;SDS011;674;45.552;-122.600;2023-02-01T17:40:25;9.10;;;5.63;;
1360;SDS011;674;45.552;-122.600;2023-02-01T17:42:56;9.13;;;6.15;;
1360;SDS011;674;45.552;-122.600;2023-02-01T17:45:32;11.77;;;6.30;;